Tionea — ISYR — position and weather

sailwx.info

Track history (hours):
 
Tides and Currents Weather Stations Pressure Air Temp Water Temp Dewpoint Dewpoint Depression Visibility Wind Speed Wind Dir Waves Ship Positions

Tionea

Last reported at 2015-Jul-25 20:09 UTC. Time now 2015-Jul-30 14:13 UTC.
Position N 40°28' E 013°48'.

Length 52 m.

MMSI: 247159400.

Date/timePositionNaut miles runAvg speedWind from/ knotsBaromVisibWave heightAir tempDewpointWater temp
2015-Jul-25 20:09N 40°28' E 013°48'1012.0
2015-Jul-25 19:19N 40°31' E 014°00'1110.9
2015-Jul-25 18:17N 40°32' E 014°15'0 0.1
2015-Jul-25 17:29N 40°32' E 014°15'0 0.0
2015-Jul-25 16:33N 40°32' E 014°15'0 0.0
2015-Jul-25 14:08N 40°32' E 014°15'610.5
2015-Jul-25 13:33N 40°38' E 014°16'11 0.4
2015-Jul-24 10:12N 40°50' E 014°14'1 0.8
2015-Jul-24 09:30N 40°49' E 014°14'0 0.0
2015-Jul-24 07:20N 40°49' E 014°14'0 0.0
2015-Jul-24 05:26N 40°49' E 014°14'0 0.0
2015-Jul-24 04:17N 40°49' E 014°14'0 0.0
2015-Jul-24 03:24N 40°49' E 014°14'0 0.0
2015-Jul-24 01:30N 40°49' E 014°14'0 0.0
2015-Jul-24 00:30N 40°49' E 014°14'0 0.0
2015-Jul-23 23:32N 40°49' E 014°14'0 0.0
2015-Jul-23 22:31N 40°49' E 014°14'0 0.0
2015-Jul-23 21:33N 40°49' E 014°14'0 0.0
2015-Jul-23 14:30N 40°49' E 014°14'0 0.0
2015-Jul-23 13:32N 40°50' E 014°14'0 0.0
2015-Jul-23 12:33N 40°50' E 014°14'0 0.0
2015-Jul-23 11:28N 40°50' E 014°14'6 6.3
2015-Jul-23 10:33N 40°45' E 014°09'9 9.4
2015-Jul-23 09:33N 40°45' E 013°57'2 2.2
2015-Jul-23 08:33N 40°45' E 013°54'0 0.0
2015-Jul-23 07:33N 40°45' E 013°54'4 0.2
2015-Jul-22 14:28N 40°42' E 013°54'18 1.0
2015-Jul-21 19:28N 40°32' E 014°15'0 0.0
2015-Jul-21 18:31N 40°32' E 014°15'0 0.0
2015-Jul-21 17:32N 40°32' E 014°15'12 1.7
2015-Jul-21 10:28N 40°37' E 014°29'1 0.1
2015-Jul-21 04:23N 40°37' E 014°30'0 0.0
2015-Jul-21 03:21N 40°37' E 014°30'0 0.0
2015-Jul-21 00:28N 40°37' E 014°30'0 0.0
2015-Jul-20 16:32N 40°37' E 014°30'12 1.0
2015-Jul-20 04:09N 40°32' E 014°15'0 0.0
2015-Jul-20 02:14N 40°32' E 014°15'0 0.0
2015-Jul-20 00:28N 40°32' E 014°15'0 0.0
2015-Jul-19 22:25N 40°32' E 014°15'0 0.0
2015-Jul-19 20:06N 40°32' E 014°15'0 0.0
2015-Jul-19 18:31N 40°32' E 014°15'0 0.0
2015-Jul-19 17:32N 40°32' E 014°15'0 0.0
2015-Jul-19 14:33N 40°32' E 014°15'0 0.0
2015-Jul-18 23:32N 40°32' E 014°15'9 9.0
2015-Jul-18 22:32N 40°40' E 014°22'3 3.3
2015-Jul-18 21:33N 40°41' E 014°26'0 0.0
2015-Jul-18 20:33N 40°41' E 014°26'0 0.0
2015-Jul-18 19:33N 40°41' E 014°26'0 0.0
2015-Jul-18 18:33N 40°41' E 014°26'0 0.0
2015-Jul-18 17:33N 40°41' E 014°26'0 0.0
2015-Jul-18 16:30N 40°41' E 014°26'0 0.0
2015-Jul-18 15:33N 40°41' E 014°26'3 0.3
2015-Jul-18 06:31N 40°43' E 014°28'0 0.0
2015-Jul-18 05:29N 40°43' E 014°28'0 0.0
2015-Jul-18 04:33N 40°43' E 014°28'0 0.0
2015-Jul-18 03:33N 40°43' E 014°28'0 0.0
2015-Jul-18 02:32N 40°43' E 014°28'0 0.0
2015-Jul-18 01:31N 40°43' E 014°28'0 0.0
2015-Jul-18 00:32N 40°43' E 014°28'0 0.0
2015-Jul-17 23:33N 40°43' E 014°28'0 0.0
2015-Jul-17 20:04N 40°43' E 014°28'0 0.0
2015-Jul-17 19:33N 40°43' E 014°28'0 0.0
2015-Jul-17 16:29N 40°43' E 014°28'0 0.0
2015-Jul-17 15:33N 40°43' E 014°28'0 0.0
2015-Jul-17 14:32N 40°43' E 014°28'0 0.0
2015-Jul-17 13:32N 40°43' E 014°28'0 0.0
2015-Jul-17 12:24N 40°43' E 014°28'0 0.0
2015-Jul-17 11:31N 40°43' E 014°28'0 0.0
2015-Jul-17 10:28N 40°43' E 014°28'0 0.0
2015-Jul-17 09:30N 40°43' E 014°28'0 0.0
2015-Jul-17 08:33N 40°43' E 014°28'0 0.0
2015-Jul-17 07:32N 40°43' E 014°28'0 0.0
2015-Jul-17 06:26N 40°43' E 014°28'0 0.0
2015-Jul-17 05:32N 40°43' E 014°28'0 0.0
2015-Jul-17 04:33N 40°43' E 014°28'0 0.0
2015-Jul-17 03:31N 40°43' E 014°28'0 0.0
2015-Jul-17 02:32N 40°43' E 014°28'0 0.0
2015-Jul-17 01:33N 40°43' E 014°28'0 0.0
2015-Jul-17 00:32N 40°43' E 014°28'0 0.0
2015-Jul-16 23:33N 40°43' E 014°28'0 0.0
2015-Jul-16 22:33N 40°43' E 014°28'0 0.0
2015-Jul-16 21:30N 40°43' E 014°28'0 0.0
2015-Jul-16 20:32N 40°43' E 014°28'0 0.0
2015-Jul-16 19:32N 40°43' E 014°28'0 0.0
2015-Jul-16 18:32N 40°43' E 014°28'0 0.0
2015-Jul-16 17:33N 40°43' E 014°28'0 0.0
2015-Jul-16 14:19N 40°43' E 014°28'0 0.0
2015-Jul-16 12:27N 40°43' E 014°28'0 0.0
2015-Jul-16 11:16N 40°43' E 014°28'0 0.0
2015-Jul-16 10:25N 40°43' E 014°28'0 0.0
2015-Jul-16 09:29N 40°43' E 014°28'1 0.3
2015-Jul-16 07:33N 40°43' E 014°28'8 7.8
2015-Jul-16 06:31N 40°47' E 014°19'5 4.5
2015-Jul-16 05:31N 40°49' E 014°14'0 0.0
2015-Jul-16 04:13N 40°49' E 014°14'0 0.0
2015-Jul-16 02:26N 40°49' E 014°14'0 0.0
2015-Jul-16 01:29N 40°49' E 014°14'0 0.0
2015-Jul-16 00:22N 40°49' E 014°14'0 0.0
2015-Jul-15 22:06N 40°49' E 014°14'0 0.0
2015-Jul-15 21:32N 40°49' E 014°14'0 0.0
2015-Jul-15 20:13N 40°49' E 014°14'  
Track history (hours):
 
Tides and Currents Weather Stations Pressure Air Temp Water Temp Dewpoint Dewpoint Depression Visibility Wind Speed Wind Dir Waves Ship Positions

Tionea

Last reported at 2015-Jul-25 20:09 UTC. Time now 2015-Jul-30 14:13 UTC.
Position N 40°28' E 013°48'.

Length 52 m.

MMSI: 247159400.

Date/timePositionNaut miles runAvg speedWind from/ knotsBaromVisibWave heightAir tempDewpointWater temp
2015-Jul-25 20:09N 40°28' E 013°48'1012.0
2015-Jul-25 19:19N 40°31' E 014°00'1110.9
2015-Jul-25 18:17N 40°32' E 014°15'0 0.1
2015-Jul-25 17:29N 40°32' E 014°15'0 0.0
2015-Jul-25 16:33N 40°32' E 014°15'0 0.0
2015-Jul-25 14:08N 40°32' E 014°15'610.5
2015-Jul-25 13:33N 40°38' E 014°16'11 0.4
2015-Jul-24 10:12N 40°50' E 014°14'1 0.8
2015-Jul-24 09:30N 40°49' E 014°14'0 0.0
2015-Jul-24 07:20N 40°49' E 014°14'0 0.0
2015-Jul-24 05:26N 40°49' E 014°14'0 0.0
2015-Jul-24 04:17N 40°49' E 014°14'0 0.0
2015-Jul-24 03:24N 40°49' E 014°14'0 0.0
2015-Jul-24 01:30N 40°49' E 014°14'0 0.0
2015-Jul-24 00:30N 40°49' E 014°14'0 0.0
2015-Jul-23 23:32N 40°49' E 014°14'0 0.0
2015-Jul-23 22:31N 40°49' E 014°14'0 0.0
2015-Jul-23 21:33N 40°49' E 014°14'0 0.0
2015-Jul-23 14:30N 40°49' E 014°14'0 0.0
2015-Jul-23 13:32N 40°50' E 014°14'0 0.0
2015-Jul-23 12:33N 40°50' E 014°14'0 0.0
2015-Jul-23 11:28N 40°50' E 014°14'6 6.3
2015-Jul-23 10:33N 40°45' E 014°09'9 9.4
2015-Jul-23 09:33N 40°45' E 013°57'2 2.2
2015-Jul-23 08:33N 40°45' E 013°54'0 0.0
2015-Jul-23 07:33N 40°45' E 013°54'4 0.2
2015-Jul-22 14:28N 40°42' E 013°54'18 1.0
2015-Jul-21 19:28N 40°32' E 014°15'0 0.0
2015-Jul-21 18:31N 40°32' E 014°15'0 0.0
2015-Jul-21 17:32N 40°32' E 014°15'12 1.7
2015-Jul-21 10:28N 40°37' E 014°29'1 0.1
2015-Jul-21 04:23N 40°37' E 014°30'0 0.0
2015-Jul-21 03:21N 40°37' E 014°30'0 0.0
2015-Jul-21 00:28N 40°37' E 014°30'0 0.0
2015-Jul-20 16:32N 40°37' E 014°30'12 1.0
2015-Jul-20 04:09N 40°32' E 014°15'0 0.0
2015-Jul-20 02:14N 40°32' E 014°15'0 0.0
2015-Jul-20 00:28N 40°32' E 014°15'0 0.0
2015-Jul-19 22:25N 40°32' E 014°15'0 0.0
2015-Jul-19 20:06N 40°32' E 014°15'0 0.0
2015-Jul-19 18:31N 40°32' E 014°15'0 0.0
2015-Jul-19 17:32N 40°32' E 014°15'0 0.0
2015-Jul-19 14:33N 40°32' E 014°15'0 0.0
2015-Jul-18 23:32N 40°32' E 014°15'9 9.0
2015-Jul-18 22:32N 40°40' E 014°22'3 3.3
2015-Jul-18 21:33N 40°41' E 014°26'0 0.0
2015-Jul-18 20:33N 40°41' E 014°26'0 0.0
2015-Jul-18 19:33N 40°41' E 014°26'0 0.0
2015-Jul-18 18:33N 40°41' E 014°26'0 0.0
2015-Jul-18 17:33N 40°41' E 014°26'0 0.0
2015-Jul-18 16:30N 40°41' E 014°26'0 0.0
2015-Jul-18 15:33N 40°41' E 014°26'3 0.3
2015-Jul-18 06:31N 40°43' E 014°28'0 0.0
2015-Jul-18 05:29N 40°43' E 014°28'0 0.0
2015-Jul-18 04:33N 40°43' E 014°28'0 0.0
2015-Jul-18 03:33N 40°43' E 014°28'0 0.0
2015-Jul-18 02:32N 40°43' E 014°28'0 0.0
2015-Jul-18 01:31N 40°43' E 014°28'0 0.0
2015-Jul-18 00:32N 40°43' E 014°28'0 0.0
2015-Jul-17 23:33N 40°43' E 014°28'0 0.0
2015-Jul-17 20:04N 40°43' E 014°28'0 0.0
2015-Jul-17 19:33N 40°43' E 014°28'0 0.0
2015-Jul-17 16:29N 40°43' E 014°28'0 0.0
2015-Jul-17 15:33N 40°43' E 014°28'0 0.0
2015-Jul-17 14:32N 40°43' E 014°28'0 0.0
2015-Jul-17 13:32N 40°43' E 014°28'0 0.0
2015-Jul-17 12:24N 40°43' E 014°28'0 0.0
2015-Jul-17 11:31N 40°43' E 014°28'0 0.0
2015-Jul-17 10:28N 40°43' E 014°28'0 0.0
2015-Jul-17 09:30N 40°43' E 014°28'0 0.0
2015-Jul-17 08:33N 40°43' E 014°28'0 0.0
2015-Jul-17 07:32N 40°43' E 014°28'0 0.0
2015-Jul-17 06:26N 40°43' E 014°28'0 0.0
2015-Jul-17 05:32N 40°43' E 014°28'0 0.0
2015-Jul-17 04:33N 40°43' E 014°28'0 0.0
2015-Jul-17 03:31N 40°43' E 014°28'0 0.0
2015-Jul-17 02:32N 40°43' E 014°28'0 0.0
2015-Jul-17 01:33N 40°43' E 014°28'0 0.0
2015-Jul-17 00:32N 40°43' E 014°28'0 0.0
2015-Jul-16 23:33N 40°43' E 014°28'0 0.0
2015-Jul-16 22:33N 40°43' E 014°28'0 0.0
2015-Jul-16 21:30N 40°43' E 014°28'0 0.0
2015-Jul-16 20:32N 40°43' E 014°28'0 0.0
2015-Jul-16 19:32N 40°43' E 014°28'0 0.0
2015-Jul-16 18:32N 40°43' E 014°28'0 0.0
2015-Jul-16 17:33N 40°43' E 014°28'0 0.0
2015-Jul-16 14:19N 40°43' E 014°28'0 0.0
2015-Jul-16 12:27N 40°43' E 014°28'0 0.0
2015-Jul-16 11:16N 40°43' E 014°28'0 0.0
2015-Jul-16 10:25N 40°43' E 014°28'0 0.0
2015-Jul-16 09:29N 40°43' E 014°28'1 0.3
2015-Jul-16 07:33N 40°43' E 014°28'8 7.8
2015-Jul-16 06:31N 40°47' E 014°19'5 4.5
2015-Jul-16 05:31N 40°49' E 014°14'0 0.0
2015-Jul-16 04:13N 40°49' E 014°14'0 0.0
2015-Jul-16 02:26N 40°49' E 014°14'0 0.0
2015-Jul-16 01:29N 40°49' E 014°14'0 0.0
2015-Jul-16 00:22N 40°49' E 014°14'0 0.0
2015-Jul-15 22:06N 40°49' E 014°14'0 0.0
2015-Jul-15 21:32N 40°49' E 014°14'0 0.0
2015-Jul-15 20:13N 40°49' E 014°14'  

Dump ship's entire track history